Time;durP1;ratioP1;P1;durP2;ratioP2;P2;SDS_P1;SDS_P2;PMS_P1;PMS_P2;Temp;Humidity;BMP_temperature;BMP_pressure;BME280_temperature;BME280_humidity;BME280_pressure;Samples;Min_cycle;Max_cycle;Signal;HPM_P1;HPM_P2
2022/06/10 00:02:43;;;;;;;11.35;6.53;;;;;;;14.96;96.82;96797.59;10501643;28;20550;-57
2022/06/10 00:07:42;;;;;;;12.50;7.25;;;;;;;14.89;96.79;96801.31;10501947;28;20063;-57
2022/06/10 00:12:41;;;;;;;;;;;;;;;14.89;96.55;96814.38;10498454;28;20728;-57
2022/06/10 00:17:40;;;;;;;11.27;8.05;;;;;;;14.90;96.49;96809.13;10494325;28;20649;-57
2022/06/10 00:22:39;;;;;;;;;;;;;;;14.96;96.46;96814.13;10505227;28;20058;-57
2022/06/10 00:27:38;;;;;;;12.77;7.93;;;;;;;15.01;97.12;96808.72;10502731;28;19916;-57
2022/06/10 00:32:37;;;;;;;15.10;8.18;;;;;;;15.07;97.02;96807.69;10478269;28;20067;-57
2022/06/10 00:37:36;;;;;;;14.52;7.55;;;;;;;15.18;97.32;96808.19;10460475;28;20055;-57
2022/06/10 00:42:37;;;;;;;13.13;7.70;;;;;;;15.31;96.56;96804.22;10485361;28;20070;-57
2022/06/10 00:47:39;;;;;;;13.90;7.63;;;;;;;15.39;96.11;96806.56;10462684;28;20111;-57
2022/06/10 00:52:43;;;;;;;12.95;7.45;;;;;;;15.44;96.11;96804.66;10465569;28;20071;-57
2022/06/10 00:57:45;;;;;;;13.00;7.68;;;;;;;15.48;95.39;96801.00;10498855;28;20077;-57
2022/06/10 01:02:45;;;;;;;10.07;6.95;;;;;;;15.51;95.40;96800.06;10497500;28;20070;-57
2022/06/10 01:08:01;;;;;;;9.93;6.95;;;;;;;15.56;94.85;96798.97;10499146;28;20770;-57
2022/06/10 01:13:00;;;;;;;11.95;7.75;;;;;;;15.57;94.82;96792.81;10498161;28;20066;-57
2022/06/10 01:18:26;;;;;;;13.63;7.82;;;;;;;15.58;94.46;96791.09;10501026;28;20094;-57
2022/06/10 01:23:44;;;;;;;13.65;7.18;;;;;;;15.45;94.79;96796.72;10499284;28;20454;-57
2022/06/10 01:28:45;;;;;;;11.18;7.45;;;;;;;15.31;95.33;96801.59;10500562;28;20055;-56
2022/06/10 01:34:01;;;;;;;11.70;7.78;;;;;;;15.19;95.19;96800.28;10500718;28;20055;-57
2022/06/10 01:39:09;;;;;;;12.65;8.48;;;;;;;15.12;95.38;96793.53;10499646;28;20486;-57
2022/06/10 01:44:16;;;;;;;13.63;7.95;;;;;;;15.08;95.62;96802.41;10500415;28;20103;-57
2022/06/10 01:49:30;;;;;;;12.25;7.80;;;;;;;15.09;95.55;96805.88;10496507;28;20062;-57
2022/06/10 01:54:35;;;;;;;13.88;8.75;;;;;;;15.04;95.31;96806.03;10499653;28;20075;-57
2022/06/10 01:59:44;;;;;;;15.68;8.60;;;;;;;15.07;95.45;96810.31;10499152;28;20055;-57
2022/06/10 02:04:49;;;;;;;17.17;10.13;;;;;;;15.02;95.03;96813.06;10498967;28;20058;-57
2022/06/10 02:10:03;;;;;;;14.13;9.68;;;;;;;14.98;95.63;96821.91;10498256;28;20062;-57
2022/06/10 02:15:08;;;;;;;17.48;8.90;;;;;;;15.01;95.59;96827.03;10497828;28;20058;-57
2022/06/10 02:20:15;;;;;;;13.20;9.55;;;;;;;15.04;95.75;96819.94;10498431;28;20535;-57
2022/06/10 02:25:39;;;;;;;18.25;9.35;;;;;;;15.09;95.86;96822.41;10499612;28;20513;-57
2022/06/10 02:30:44;;;;;;;13.93;8.63;;;;;;;15.15;95.79;96821.34;10499833;28;20055;-57
2022/06/10 02:35:54;;;;;;;11.63;8.77;;;;;;;15.23;95.37;96822.78;10499169;28;20135;-57
2022/06/10 02:41:12;;;;;;;16.10;9.48;;;;;;;15.33;95.49;96827.69;10499643;28;20055;-57
2022/06/10 02:46:34;;;;;;;16.48;9.05;;;;;;;15.20;96.16;96832.47;10496696;28;20081;-57
2022/06/10 02:51:35;;;;;;;17.17;7.47;;;;;;;14.85;97.89;96836.28;10499490;28;20059;-57
2022/06/10 02:56:34;;;;;;;11.50;8.63;;;;;;;14.87;98.02;96834.47;10498605;28;20055;-57
2022/06/10 03:01:36;;;;;;;;;;;;;;;14.99;97.60;96836.66;10499998;28;20034;-57
2022/06/10 03:06:37;;;;;;;15.35;7.90;;;;;;;15.08;97.24;96848.56;10498701;28;19955;-57
2022/06/10 03:12:14;;;;;;;13.23;8.10;;;;;;;15.18;96.86;96837.78;10496905;28;20070;-57
2022/06/10 03:17:32;;;;;;;15.13;8.93;;;;;;;15.32;96.60;96849.50;10496010;28;20059;-57
2022/06/10 03:23:04;;;;;;;16.02;9.57;;;;;;;15.45;95.89;96856.88;10494870;28;20501;-57
2022/06/10 03:28:12;;;;;;;12.57;10.10;;;;;;;15.58;95.30;96854.69;10505004;28;20059;-57
2022/06/10 03:33:53;;;;;;;18.02;9.18;;;;;;;15.44;95.36;96857.78;10504987;28;20078;-57
2022/06/10 03:38:54;;;;;;;15.80;8.10;;;;;;;15.32;95.73;96875.63;10504350;28;20066;-57
2022/06/10 03:43:55;;;;;;;12.00;8.98;;;;;;;15.12;96.11;96885.00;10503904;28;20065;-57
2022/06/10 03:48:56;;;;;;;13.38;8.70;;;;;;;15.01;96.48;96880.16;10464263;28;20055;-57
2022/06/10 03:53:56;;;;;;;14.80;8.68;;;;;;;14.94;96.58;96885.59;10463664;28;20498;-57
2022/06/10 03:58:55;;;;;;;12.32;8.90;;;;;;;15.07;96.71;96879.09;10493235;28;20071;-57
2022/06/10 04:03:53;;;;;;;;;;;;;;;15.44;96.18;96896.16;10505782;28;20023;-57
2022/06/10 04:08:52;;;;;;;16.05;10.90;;;;;;;15.71;95.89;96891.72;10504182;28;20009;-57
2022/06/10 04:13:51;;;;;;;;;;;;;;;15.99;95.70;96878.53;10504777;28;20059;-57
2022/06/10 04:18:50;;;;;;;13.87;10.63;;;;;;;16.25;94.83;96881.94;10504182;28;19912;-57
2022/06/10 04:23:49;;;;;;;;;;;;;;;16.51;94.61;96887.06;10504137;28;20106;-57
2022/06/10 04:28:48;;;;;;;14.00;9.77;;;;;;;16.78;93.75;96889.50;10503066;28;20006;-57
2022/06/10 04:33:47;;;;;;;;;;;;;;;16.95;91.65;96882.75;10504686;28;20059;-57
2022/06/10 04:38:46;;;;;;;14.23;8.03;;;;;;;16.92;90.60;96881.97;10496907;28;19955;-57
2022/06/10 04:43:45;;;;;;;11.95;7.60;;;;;;;17.08;89.83;96894.47;10503423;28;20051;-57
2022/06/10 04:48:44;;;;;;;10.38;7.78;;;;;;;16.88;89.79;96898.72;10504025;28;20050;-57
2022/06/10 04:53:43;;;;;;;;;;;;;;;16.72;90.64;96918.53;10498315;28;20039;-57
2022/06/10 04:58:42;;;;;;;11.80;8.20;;;;;;;16.55;91.00;96920.97;10501760;28;20372;-57
2022/06/10 05:03:42;;;;;;;12.90;8.25;;;;;;;16.56;91.42;96925.28;10502199;28;20453;-57
2022/06/10 05:08:41;;;;;;;15.02;7.57;;;;;;;16.78;91.04;96931.41;10500677;28;20066;-57
2022/06/10 05:13:40;;;;;;;9.80;7.47;;;;;;;17.04;90.31;96938.28;10495115;28;20066;-57
2022/06/10 05:18:39;;;;;;;10.30;7.10;;;;;;;17.27;89.02;96937.34;10502603;28;20153;-57
2022/06/10 05:23:38;;;;;;;8.30;6.45;;;;;;;17.51;87.29;96943.34;10492991;28;20064;-57
2022/06/10 05:28:38;;;;;;;11.48;7.32;;;;;;;17.77;86.84;96937.00;10472781;28;20066;-57
2022/06/10 05:38:55;;;;;;;9.55;6.85;;;;;;;18.58;84.90;96935.19;10491536;27;20067;-57
2022/06/10 05:43:54;;;;;;;8.50;6.25;;;;;;;19.01;83.36;96938.44;10491064;28;20051;-57
2022/06/10 05:48:53;;;;;;;10.63;7.03;;;;;;;19.12;80.56;96909.00;10488527;28;20055;-57
2022/06/10 05:53:52;;;;;;;12.43;6.75;;;;;;;19.52;79.88;96921.97;10476036;28;20170;-57
2022/06/10 05:58:51;;;;;;;9.05;6.93;;;;;;;19.69;76.35;96944.81;10481337;28;20778;-57
2022/06/10 06:03:50;;;;;;;11.10;6.68;;;;;;;19.78;74.69;96939.94;10460704;28;20031;-57
2022/06/10 06:08:49;;;;;;;10.02;6.78;;;;;;;19.82;73.59;96940.66;10467234;28;20397;-57
2022/06/10 06:13:48;;;;;;;12.52;7.43;;;;;;;19.90;74.43;96950.78;10500369;28;20039;-57
2022/06/10 06:18:48;;;;;;;13.13;6.82;;;;;;;19.76;76.12;96954.97;10479888;28;20027;-57
2022/06/10 06:23:47;;;;;;;17.20;7.15;;;;;;;19.21;78.37;96960.31;10485784;28;20059;-57
2022/06/10 06:28:46;;;;;;;11.45;7.10;;;;;;;18.87;79.83;96967.16;10480376;28;20046;-57
2022/06/10 06:33:45;;;;;;;11.80;6.50;;;;;;;18.63;80.34;96971.75;10476993;28;20066;-57
2022/06/10 06:38:45;;;;;;;9.88;6.70;;;;;;;18.55;81.25;96984.38;10498989;28;20111;-57
2022/06/10 06:43:44;;;;;;;9.95;6.20;;;;;;;18.65;81.77;96983.06;10480427;28;20070;-57
2022/06/10 06:48:44;;;;;;;13.10;7.50;;;;;;;18.33;82.21;96972.22;10487722;28;20063;-59
2022/06/10 06:53:43;;;;;;;8.88;6.07;;;;;;;18.36;82.62;96979.09;10489487;28;20117;-57
2022/06/10 06:58:42;;;;;;;9.02;6.45;;;;;;;18.41;82.13;96979.78;10498907;28;20031;-57
2022/06/10 07:03:41;;;;;;;8.60;6.35;;;;;;;18.60;81.38;96962.25;10475285;28;20040;-57
2022/06/10 07:08:40;;;;;;;10.02;5.85;;;;;;;18.74;80.74;96980.03;10490847;28;20108;-57
2022/06/10 07:13:39;;;;;;;11.13;6.00;;;;;;;18.85;80.54;96989.19;10485385;28;20378;-57
2022/06/10 07:18:38;;;;;;;9.10;6.40;;;;;;;18.96;80.42;96981.66;10505029;28;20023;-57
2022/06/10 07:23:37;;;;;;;10.65;6.72;;;;;;;18.89;80.37;96983.72;10510293;28;20050;-57
2022/06/10 07:28:36;;;;;;;9.02;6.60;;;;;;;18.82;81.37;96991.03;10508368;28;20111;-57
2022/06/10 07:33:35;;;;;;;9.52;6.72;;;;;;;18.98;81.23;96995.59;10493866;28;20067;-58
2022/06/10 07:38:34;;;;;;;8.32;6.75;;;;;;;18.90;81.69;96990.69;10467620;28;20423;-57
2022/06/10 07:43:35;;;;;;;9.13;7.28;;;;;;;18.95;82.26;96993.97;10498870;28;20819;-57
2022/06/10 07:48:33;;;;;;;10.55;7.70;;;;;;;19.28;81.54;96990.66;10504063;28;20059;-57
2022/06/10 07:53:32;;;;;;;10.15;7.15;;;;;;;19.39;80.62;96990.13;10503641;28;20047;-57
2022/06/10 07:58:31;;;;;;;9.10;6.78;;;;;;;19.47;79.05;97002.91;10505481;28;20394;-57
2022/06/10 08:03:30;;;;;;;10.73;7.18;;;;;;;19.32;80.15;97008.00;10503728;28;20059;-57
2022/06/10 08:08:30;;;;;;;8.07;6.45;;;;;;;18.87;81.55;96997.88;10505117;28;20490;-57
2022/06/10 08:13:29;;;;;;;9.35;6.88;;;;;;;19.10;81.59;97015.19;10497693;28;20062;-57
2022/06/10 08:18:31;;;;;;;11.10;7.00;;;;;;;19.05;81.36;97032.97;10500911;28;20047;-57
2022/06/10 08:23:31;;;;;;;9.25;6.90;;;;;;;18.63;82.81;97047.97;10497372;28;20060;-57
2022/06/10 08:28:30;;;;;;;10.80;8.13;;;;;;;18.22;84.81;97052.38;10487078;28;20059;-57
2022/06/10 08:33:29;;;;;;;10.40;8.48;;;;;;;17.98;86.67;97048.13;10495386;28;20032;-57
2022/06/10 08:38:28;;;;;;;14.18;9.70;;;;;;;18.25;86.36;97045.25;10499908;27;20066;-57
2022/06/10 08:43:57;;;;;;;12.70;9.45;;;;;;;18.28;86.13;97057.41;10501981;28;20038;-57
2022/06/10 08:49:05;;;;;;;15.07;9.40;;;;;;;18.06;86.02;97060.94;10493469;28;20058;-57
2022/06/10 08:54:29;;;;;;;13.25;9.90;;;;;;;17.88;87.49;97073.06;10478285;28;20478;-57
2022/06/10 08:59:30;;;;;;;15.25;12.05;;;;;;;18.01;87.52;97072.53;10501845;28;20074;-57
2022/06/10 09:04:43;;;;;;;14.88;11.50;;;;;;;17.85;87.73;97080.22;10502198;28;20052;-57
2022/06/10 09:09:43;;;;;;;15.50;11.18;;;;;;;17.73;88.16;97079.75;10501742;28;20070;-57
2022/06/10 09:14:43;;;;;;;13.43;11.70;;;;;;;17.77;87.91;97077.88;10476562;28;20052;-57
2022/06/10 09:20:16;;;;;;;15.18;12.23;;;;;;;17.67;89.03;97090.50;10495435;28;20137;-57
2022/06/10 09:25:24;;;;;;;18.90;13.48;;;;;;;17.40;90.24;97096.81;10494181;28;20055;-57
2022/06/10 09:30:50;;;;;;;18.90;12.63;;;;;;;17.32;90.58;97097.97;10488915;27;20066;-57
2022/06/10 09:36:00;;;;;;;15.38;13.25;;;;;;;17.35;90.88;97095.25;10487594;28;20449;-57
2022/06/10 09:41:28;;;;;;;15.77;12.43;;;;;;;17.59;90.31;97087.34;10500966;28;20055;-57
2022/06/10 09:46:54;;;;;;;15.32;12.80;;;;;;;17.89;88.61;97093.13;10499297;28;20055;-57
2022/06/10 09:52:31;;;;;;;14.98;12.52;;;;;;;18.13;87.15;97096.53;10500118;28;20128;-57
2022/06/10 09:57:59;;;;;;;18.25;13.82;;;;;;;18.17;87.19;97095.47;10495473;28;20052;-57
2022/06/10 10:03:25;;;;;;;18.40;13.95;;;;;;;18.09;86.88;97099.34;10482345;28;20520;-57
2022/06/10 10:08:58;;;;;;;18.58;14.63;;;;;;;17.94;87.59;97095.56;10474520;28;20051;-57
2022/06/10 10:14:32;;;;;;;17.85;14.73;;;;;;;18.08;87.77;97088.00;10491390;28;20062;-57
2022/06/10 10:20:11;;;;;;;19.17;15.15;;;;;;;18.29;87.00;97095.84;10472448;28;20070;-57
2022/06/10 10:25:23;;;;;;;17.40;13.40;;;;;;;18.25;86.41;97095.16;10485018;28;20051;-57
2022/06/10 10:30:43;;;;;;;16.35;13.75;;;;;;;18.32;86.04;97095.75;10485829;28;20123;-57
2022/06/10 10:35:48;;;;;;;17.15;14.27;;;;;;;18.47;85.15;97087.19;10482123;28;20463;-57
2022/06/10 10:40:47;;;;;;;17.85;13.98;;;;;;;18.38;85.04;97101.56;10482823;28;20061;-57
2022/06/10 10:46:24;;;;;;;19.67;14.57;;;;;;;18.55;85.03;97092.97;10498503;28;20474;-58
2022/06/10 10:51:35;;;;;;;16.98;14.20;;;;;;;18.84;83.27;97072.47;10487644;28;20066;-58
2022/06/10 10:56:40;;;;;;;17.07;14.27;;;;;;;19.42;81.73;97088.19;10540286;28;21632;-58
2022/06/10 11:01:47;;;;;;;21.75;14.77;;;;;;;19.31;79.87;97068.56;10539786;28;20067;-58
2022/06/10 11:06:57;;;;;;;17.70;14.43;;;;;;;19.72;79.39;97081.53;10539167;28;20485;-58
2022/06/10 11:12:01;;;;;;;17.67;14.48;;;;;;;19.95;78.64;97068.09;10538256;28;20096;-58
2022/06/10 11:17:09;;;;;;;17.85;13.45;;;;;;;20.49;77.21;97073.31;10538260;28;20058;-58
2022/06/10 11:22:18;;;;;;;19.77;14.13;;;;;;;20.76;76.48;97059.63;10540582;28;20069;-57
2022/06/10 11:27:28;;;;;;;13.50;12.07;;;;;;;20.63;75.76;97064.69;10531721;28;20086;-58
2022/06/10 11:32:33;;;;;;;14.02;11.77;;;;;;;20.35;74.68;97066.09;10537992;28;20070;-58
2022/06/10 11:37:36;;;;;;;16.58;13.35;;;;;;;20.28;76.31;97056.78;10523145;28;20063;-58
2022/06/10 11:42:46;;;;;;;16.10;12.50;;;;;;;20.58;74.25;97025.38;10517098;28;20062;-58
2022/06/10 11:48:11;;;;;;;13.60;11.93;;;;;;;20.81;72.91;97031.25;10546371;27;20073;-58
2022/06/10 11:53:14;;;;;;;14.95;13.40;;;;;;;21.43;71.24;97037.53;10550027;27;20090;-58
2022/06/10 12:03:48;;;;;;;14.15;12.32;;;;;;;22.64;66.39;97028.72;10549809;27;20063;-58
2022/06/10 12:08:54;;;;;;;15.80;13.07;;;;;;;23.00;64.53;97029.13;10547234;27;20066;-58
2022/06/10 12:14:09;;;;;;;15.70;13.35;;;;;;;22.83;64.15;97021.38;10550771;27;20063;-58
2022/06/10 12:19:19;;;;;;;15.15;13.52;;;;;;;22.47;64.65;97020.03;10546724;27;20059;-58
2022/06/10 12:24:20;;;;;;;15.95;14.23;;;;;;;21.75;66.11;97013.69;10549605;27;20537;-58
2022/06/10 12:29:34;;;;;;;17.08;14.27;;;;;;;21.51;67.72;97016.81;10544911;27;20062;-58
2022/06/10 12:34:50;;;;;;;18.20;14.82;;;;;;;20.95;70.49;97018.16;10545100;27;20070;-58
2022/06/10 12:39:56;;;;;;;17.92;15.93;;;;;;;20.91;71.24;97017.47;10520868;27;20070;-58
2022/06/10 12:44:59;;;;;;;18.75;16.13;;;;;;;20.77;71.69;97024.41;10530778;27;20541;-58
2022/06/10 12:50:01;;;;;;;20.20;17.95;;;;;;;20.80;72.26;97019.84;10538091;27;20453;-58
2022/06/10 12:55:17;;;;;;;19.65;17.20;;;;;;;20.98;72.13;97023.25;10543096;27;20063;-58
2022/06/10 13:00:22;;;;;;;18.38;16.20;;;;;;;21.27;70.52;97028.75;10544332;27;20069;-58
2022/06/10 13:05:22;;;;;;;18.55;16.38;;;;;;;21.50;69.95;97017.75;10540900;27;20071;-58
2022/06/10 13:10:33;;;;;;;18.63;16.20;;;;;;;21.82;69.40;97019.47;10544248;27;20063;-58
2022/06/10 13:15:32;;;;;;;16.58;14.82;;;;;;;21.91;67.25;97014.50;10543504;27;20099;-58
2022/06/10 13:20:38;;;;;;;14.40;12.90;;;;;;;22.30;66.11;96994.63;10543420;27;20023;-58
2022/06/10 13:25:38;;;;;;;16.33;14.05;;;;;;;22.99;64.66;96981.59;10543913;27;20059;-58
2022/06/10 13:30:37;;;;;;;16.02;14.43;;;;;;;23.58;61.64;96986.63;10539846;27;20059;-58
2022/06/10 13:35:49;;;;;;;15.95;13.98;;;;;;;23.99;61.40;96988.34;10542967;27;20023;-58
2022/06/10 13:40:52;;;;;;;16.60;14.48;;;;;;;23.85;59.74;96991.91;10525140;27;20085;-58
2022/06/10 13:45:51;;;;;;;17.50;15.60;;;;;;;23.72;60.82;96975.13;10535855;27;20817;-58
2022/06/10 13:56:13;;;;;;;15.88;14.18;;;;;;;23.93;58.51;96971.03;10512416;27;20067;-58
2022/06/10 14:01:17;;;;;;;16.65;14.23;;;;;;;23.78;58.23;96969.44;10539272;27;20489;-58
2022/06/10 14:06:22;;;;;;;15.48;13.85;;;;;;;23.56;58.63;96977.94;10533458;27;20139;-58
2022/06/10 14:11:35;;;;;;;17.05;13.50;;;;;;;23.55;59.08;96979.75;10541101;27;20570;-58
2022/06/10 14:16:34;;;;;;;15.52;13.93;;;;;;;23.33;58.66;96979.44;10540504;27;20059;-58
2022/06/10 14:21:35;;;;;;;15.63;13.90;;;;;;;22.92;59.60;96977.63;10517263;27;20066;-58
2022/06/10 14:26:37;;;;;;;16.65;14.00;;;;;;;22.85;61.10;96978.97;10527102;27;20071;-58
2022/06/10 14:31:36;;;;;;;15.25;13.65;;;;;;;23.05;61.99;96965.34;10532276;27;20071;-57
2022/06/10 14:36:51;;;;;;;15.82;14.00;;;;;;;23.39;63.13;96973.72;10538693;27;20447;-57
2022/06/10 14:41:58;;;;;;;16.02;14.30;;;;;;;23.25;62.58;96976.41;10536291;27;20493;-57
2022/06/10 14:47:11;;;;;;;19.17;15.55;;;;;;;22.93;63.28;96968.75;10479272;27;20072;-57
2022/06/10 14:52:25;;;;;;;20.27;17.13;;;;;;;22.70;66.44;96976.31;10452902;28;20146;-57
2022/06/10 14:57:28;;;;;;;20.42;17.85;;;;;;;22.48;70.40;96976.78;10419349;28;20044;-57
2022/06/10 15:02:27;;;;;;;21.42;19.05;;;;;;;22.30;72.14;96981.41;10445959;28;20075;-57
2022/06/10 15:07:27;;;;;;;20.17;17.08;;;;;;;22.11;74.31;96994.03;10421445;28;20043;-57
2022/06/10 15:12:29;;;;;;;21.90;17.52;;;;;;;22.10;76.10;96984.41;10451272;28;20064;-57
2022/06/10 15:17:30;;;;;;;18.83;16.88;;;;;;;22.20;77.96;96982.03;10420370;28;20068;-57
2022/06/10 15:22:36;;;;;;;18.70;16.17;;;;;;;22.14;78.23;96978.00;10439846;28;20063;-57
2022/06/10 15:27:35;;;;;;;20.88;17.90;;;;;;;22.03;79.26;96983.91;10438511;28;20502;-57
2022/06/10 15:32:35;;;;;;;20.40;17.73;;;;;;;21.91;79.60;96977.53;10483095;28;20551;-57
2022/06/10 15:42:51;;;;;;;22.80;20.30;;;;;;;21.43;80.19;96991.78;10443865;28;20067;-57
2022/06/10 15:47:50;;;;;;;20.88;18.65;;;;;;;21.14;81.10;96994.25;10454386;28;20031;-57
2022/06/10 15:52:50;;;;;;;23.77;20.70;;;;;;;20.90;81.66;96993.81;10433328;28;20098;-57
2022/06/10 15:57:49;;;;;;;20.75;18.50;;;;;;;20.57;82.17;97002.63;10424298;28;20068;-57
2022/06/10 16:02:49;;;;;;;25.15;21.15;;;;;;;20.02;85.25;97015.97;10417711;28;20068;-57
2022/06/10 16:07:48;;;;;;;20.73;17.77;;;;;;;19.42;86.92;97017.16;10442144;28;20063;-57
2022/06/10 16:13:02;;;;;;;19.02;14.63;;;;;;;18.78;88.04;97026.28;10450335;28;20067;-57
2022/06/10 16:18:01;;;;;;;18.83;15.18;;;;;;;18.30;88.74;97029.28;10457267;28;20074;-57
2022/06/10 16:23:02;;;;;;;23.02;17.58;;;;;;;17.94;90.95;97033.44;10425122;28;20091;-57
2022/06/10 16:28:03;;;;;;;27.05;22.45;;;;;;;17.74;92.55;97026.34;10438566;28;20394;-57
2022/06/10 16:33:03;;;;;;;27.75;23.00;;;;;;;17.71;92.94;97026.47;10448128;28;20059;-57
2022/06/10 16:38:13;;;;;;;29.80;22.70;;;;;;;17.71;94.26;97039.59;10443994;28;20066;-57
2022/06/10 16:43:15;;;;;;;30.45;22.50;;;;;;;17.14;98.84;97054.09;10458194;28;20078;-59
2022/06/10 16:48:21;;;;;;;33.35;23.95;;;;;;;17.16;98.88;97049.66;10435447;28;20599;-57
2022/06/10 16:53:21;;;;;;;31.42;23.85;;;;;;;17.15;99.21;97045.34;10459444;28;20087;-57
2022/06/10 16:58:31;;;;;;;31.55;23.92;;;;;;;17.22;100.00;97064.31;10416849;28;20471;-57
2022/06/10 17:03:30;;;;;;;34.22;25.15;;;;;;;17.17;100.00;97061.00;10415423;28;20141;-57
2022/06/10 17:08:32;;;;;;;34.25;26.40;;;;;;;17.16;100.00;97060.16;10456731;28;20038;-57
2022/06/10 17:13:35;;;;;;;38.30;29.58;;;;;;;17.19;100.00;97052.19;10458728;28;20452;-57
2022/06/10 17:18:34;;;;;;;39.45;29.58;;;;;;;17.22;100.00;97059.91;10439087;28;20480;-58
2022/06/10 17:23:33;;;;;;;38.45;29.60;;;;;;;17.23;100.00;97055.53;10457971;28;20514;-59
2022/06/10 17:28:33;;;;;;;;;;;;;;;17.25;100.00;97065.03;10456142;28;20036;-58
2022/06/10 17:33:34;;;;;;;;;;;;;;;17.25;100.00;97054.53;10457885;28;20393;-58
2022/06/10 17:38:37;;;;;;;37.67;28.17;;;;;;;17.30;100.00;97057.84;10456881;28;19971;-58
2022/06/10 17:43:41;;;;;;;39.30;29.40;;;;;;;17.44;100.00;97049.44;10456390;28;20062;-58
2022/06/10 17:48:40;;;;;;;37.85;30.40;;;;;;;17.46;100.00;97036.25;10459574;28;20499;-58
2022/06/10 17:53:39;;;;;;;38.80;29.77;;;;;;;17.58;100.00;97042.78;10439215;28;20059;-58
2022/06/10 17:58:39;;;;;;;;;;;;;;;17.61;100.00;97033.00;10431269;28;20077;-58
2022/06/10 18:03:37;;;;;;;37.87;30.20;;;;;;;17.63;100.00;97031.16;10456721;28;19908;-58
2022/06/10 18:08:36;;;;;;;40.17;31.05;;;;;;;17.63;99.81;97039.03;10459607;28;20311;-58
2022/06/10 18:19:04;;;;;;;43.42;33.25;;;;;;;17.53;99.73;97025.44;10458641;28;20051;-58
2022/06/10 18:24:05;;;;;;;39.75;30.30;;;;;;;17.52;99.41;97041.28;10454992;28;20064;-58
2022/06/10 18:29:22;;;;;;;43.47;32.00;;;;;;;17.54;99.53;97026.31;10458474;28;20482;-58
2022/06/10 18:34:21;;;;;;;40.47;31.00;;;;;;;17.55;99.38;97033.28;10456013;28;20588;-58
2022/06/10 18:39:22;;;;;;;44.92;32.70;;;;;;;17.50;99.43;97040.47;10458348;28;20484;-58
2022/06/10 18:44:21;;;;;;;43.83;31.85;;;;;;;17.51;99.29;97050.03;10449201;28;20068;-58
2022/06/10 18:49:25;;;;;;;46.92;34.35;;;;;;;17.47;99.24;97059.81;10447535;28;20035;-58
2022/06/10 18:54:32;;;;;;;50.90;35.10;;;;;;;17.31;99.91;97064.81;10452547;28;20084;-58
2022/06/10 18:59:31;;;;;;;48.05;34.28;;;;;;;17.17;100.00;97072.34;10444219;28;20060;-58
2022/06/10 19:04:35;;;;;;;47.70;34.15;;;;;;;17.11;100.00;97093.56;10420411;28;20074;-57
2022/06/10 19:09:34;;;;;;;45.13;33.35;;;;;;;16.97;100.00;97090.59;10452209;28;20063;-57
2022/06/10 19:14:35;;;;;;;48.70;35.05;;;;;;;16.93;100.00;97109.06;10454504;28;20067;-57
2022/06/10 19:19:40;;;;;;;52.17;35.55;;;;;;;16.98;100.00;97118.50;10448582;28;20071;-58
2022/06/10 19:24:39;;;;;;;53.88;36.58;;;;;;;17.00;100.00;97114.91;10454255;28;20063;-57
2022/06/10 19:29:38;;;;;;;52.47;36.05;;;;;;;17.09;100.00;97116.34;10452910;28;20051;-58
2022/06/10 19:34:45;;;;;;;51.60;35.80;;;;;;;17.09;100.00;97111.09;10453846;28;20093;-58
2022/06/10 19:39:44;;;;;;;50.05;35.65;;;;;;;17.23;100.00;97114.06;10452475;28;20056;-58
2022/06/10 19:44:43;;;;;;;48.90;34.58;;;;;;;17.23;100.00;97106.19;10453472;28;20506;-58
2022/06/10 19:49:45;;;;;;;52.00;35.72;;;;;;;17.30;100.00;97118.16;10416461;28;20491;-58
2022/06/10 19:54:44;;;;;;;51.97;35.53;;;;;;;17.45;100.00;97139.47;10411178;28;20087;-58
2022/06/10 19:59:43;;;;;;;51.35;34.70;;;;;;;17.45;100.00;97142.97;10450462;28;20066;-58
2022/06/10 20:04:43;;;;;;;45.25;33.88;;;;;;;17.46;100.00;97151.69;10452209;28;20034;-58
2022/06/10 20:09:53;;;;;;;46.20;33.28;;;;;;;17.48;100.00;97158.56;10458937;28;20067;-58
2022/06/10 20:14:53;;;;;;;46.15;32.17;;;;;;;17.46;100.00;97146.44;10434008;28;20066;-58
2022/06/10 20:19:53;;;;;;;50.78;34.35;;;;;;;17.46;100.00;97164.78;10460868;28;20063;-58
2022/06/10 20:24:52;;;;;;;44.30;32.45;;;;;;;17.49;100.00;97172.53;10458910;28;20071;-58
2022/06/10 20:29:51;;;;;;;41.95;30.30;;;;;;;17.49;100.00;97167.28;10436294;28;20110;-58
2022/06/10 20:34:54;;;;;;;35.95;27.23;;;;;;;17.42;100.00;97158.78;10418469;28;20071;-58
2022/06/10 20:39:54;;;;;;;35.95;27.88;;;;;;;17.25;100.00;97162.06;10440115;28;20067;-58
2022/06/10 20:44:53;;;;;;;38.78;27.38;;;;;;;17.02;100.00;97172.53;10458436;28;20446;-58
2022/06/10 20:49:59;;;;;;;34.72;26.50;;;;;;;16.93;100.00;97173.72;10417197;28;20072;-58
2022/06/10 20:54:58;;;;;;;36.40;27.75;;;;;;;16.71;100.00;97170.97;10434706;28;20534;-58
2022/06/10 20:59:57;;;;;;;41.72;30.08;;;;;;;16.65;100.00;97174.69;10459025;28;20546;-58
2022/06/10 21:10:28;;;;;;;38.85;28.98;;;;;;;16.77;100.00;97169.88;10458534;28;20071;-58
2022/06/10 21:15:37;;;;;;;45.55;31.10;;;;;;;16.90;100.00;97173.81;10457357;28;20515;-58
2022/06/10 21:20:37;;;;;;;;;;;;;;;17.06;100.00;97174.13;10458869;28;20546;-58
2022/06/10 21:25:37;;;;;;;40.72;29.23;;;;;;;17.10;100.00;97173.13;10456975;28;19970;-58
2022/06/10 21:30:42;;;;;;;43.17;28.77;;;;;;;16.91;100.00;97154.56;10457904;28;20072;-58
2022/06/10 21:35:41;;;;;;;37.90;28.33;;;;;;;17.03;100.00;97163.78;10451794;28;20063;-58
2022/06/10 21:40:42;;;;;;;36.38;27.52;;;;;;;16.97;100.00;97158.75;10415566;28;20117;-58
2022/06/10 21:45:41;;;;;;;34.83;25.67;;;;;;;17.00;100.00;97163.88;10427418;28;20452;-58
2022/06/10 21:50:49;;;;;;;34.25;25.27;;;;;;;17.07;100.00;97165.34;10415615;28;20495;-58
2022/06/10 21:55:49;;;;;;;32.47;25.42;;;;;;;17.07;100.00;97144.38;10447158;28;20490;-58
2022/06/10 22:00:54;;;;;;;32.00;24.92;;;;;;;17.11;100.00;97141.59;10451274;28;20079;-58
2022/06/10 22:05:54;;;;;;;33.38;25.02;;;;;;;17.15;100.00;97142.34;10447141;28;20063;-58
2022/06/10 22:10:54;;;;;;;34.63;24.73;;;;;;;17.13;100.00;97139.78;10419463;28;20071;-59
2022/06/10 22:15:53;;;;;;;34.13;25.90;;;;;;;17.04;100.00;97134.88;10417017;28;20071;-58
2022/06/10 22:20:54;;;;;;;34.72;26.05;;;;;;;16.91;100.00;97125.72;10435639;28;20455;-59
2022/06/10 22:25:56;;;;;;;34.33;25.08;;;;;;;16.97;100.00;97128.13;10458456;28;20071;-58
2022/06/10 22:30:59;;;;;;;34.78;25.98;;;;;;;16.97;100.00;97116.81;10456606;28;20063;-59
2022/06/10 22:35:58;;;;;;;40.45;27.73;;;;;;;16.97;100.00;97114.19;10435721;28;20067;-58
2022/06/10 22:40:59;;;;;;;37.35;26.50;;;;;;;16.98;100.00;97113.25;10430471;28;20071;-58
2022/06/10 22:46:04;;;;;;;38.03;27.50;;;;;;;16.90;100.00;97103.91;10441159;28;20067;-59
2022/06/10 22:51:09;;;;;;;37.33;26.40;;;;;;;16.93;100.00;97111.69;10441012;28;20039;-59
2022/06/10 22:56:14;;;;;;;34.80;26.55;;;;;;;16.87;100.00;97101.41;10460386;28;20083;-59
2022/06/10 23:01:15;;;;;;;36.42;25.45;;;;;;;16.95;100.00;97100.28;10459852;28;20086;-59
2022/06/10 23:06:28;;;;;;;38.47;27.52;;;;;;;16.97;100.00;97107.16;10440424;28;20121;-59
2022/06/10 23:11:29;;;;;;;32.08;24.65;;;;;;;17.02;100.00;97104.38;10427277;28;20511;-59
2022/06/10 23:16:36;;;;;;;36.90;25.42;;;;;;;17.07;100.00;97107.69;10417416;28;20056;-59
2022/06/10 23:21:35;;;;;;;36.25;25.25;;;;;;;17.08;100.00;97105.00;10418202;28;20056;-59
2022/06/10 23:26:35;;;;;;;36.53;25.80;;;;;;;17.12;100.00;97093.50;10418424;28;20088;-58
2022/06/10 23:31:38;;;;;;;35.78;25.35;;;;;;;17.13;100.00;97089.09;10430446;28;20067;-59
2022/06/10 23:36:40;;;;;;;38.13;26.08;;;;;;;17.10;100.00;97094.47;10451492;28;20052;-58
2022/06/10 23:41:41;;;;;;;37.50;25.75;;;;;;;17.07;100.00;97089.31;10458450;28;20068;-58
2022/06/10 23:51:58;;;;;;;34.72;25.08;;;;;;;17.13;100.00;97081.25;10456654;28;20159;-59